sensor_id;sensor_type;location;lat;lon;timestamp;P1;durP1;ratioP1;P2;durP2;ratioP2
7169;SDS011;3626;42.656;23.312;2023-04-15T00:00:02;6.80;;;3.50;;
7169;SDS011;3626;42.656;23.312;2023-04-15T00:00:09;6.20;;;3.27;;
7169;SDS011;3626;42.656;23.312;2023-04-15T00:00:16;6.26;;;3.24;;
7169;SDS011;3626;42.656;23.312;2023-04-15T00:00:22;6.22;;;3.30;;
7169;SDS011;3626;42.656;23.312;2023-04-15T00:00:28;6.50;;;3.30;;
7169;SDS011;3626;42.656;23.312;2023-04-15T00:00:34;5.82;;;3.28;;
7169;SDS011;3626;42.656;23.312;2023-04-15T00:00:41;5.57;;;3.30;;
7169;SDS011;3626;42.656;23.312;2023-04-15T00:00:47;5.47;;;3.27;;
7169;SDS011;3626;42.656;23.312;2023-04-15T00:00:55;5.37;;;3.20;;
7169;SDS011;3626;42.656;23.312;2023-04-15T00:01:01;5.60;;;3.18;;
7169;SDS011;3626;42.656;23.312;2023-04-15T00:01:10;5.83;;;3.30;;
7169;SDS011;3626;42.656;23.312;2023-04-15T00:01:16;5.72;;;3.30;;
7169;SDS011;3626;42.656;23.312;2023-04-15T00:01:25;6.16;;;3.37;;
7169;SDS011;3626;42.656;23.312;2023-04-15T00:01:31;7.03;;;3.50;;
7169;SDS011;3626;42.656;23.312;2023-04-15T00:01:38;6.92;;;3.40;;
7169;SDS011;3626;42.656;23.312;2023-04-15T00:01:44;6.97;;;3.38;;
7169;SDS011;3626;42.656;23.312;2023-04-15T00:01:50;7.18;;;3.33;;
7169;SDS011;3626;42.656;23.312;2023-04-15T00:01:57;7.28;;;3.30;;
7169;SDS011;3626;42.656;23.312;2023-04-15T00:02:12;7.82;;;3.40;;
7169;SDS011;3626;42.656;23.312;2023-04-15T00:02:19;7.46;;;3.22;;
7169;SDS011;3626;42.656;23.312;2023-04-15T00:02:25;6.68;;;2.90;;
7169;SDS011;3626;42.656;23.312;2023-04-15T00:02:34;6.14;;;2.86;;
7169;SDS011;3626;42.656;23.312;2023-04-15T00:02:41;6.88;;;2.97;;
7169;SDS011;3626;42.656;23.312;2023-04-15T00:02:47;7.03;;;3.00;;
7169;SDS011;3626;42.656;23.312;2023-04-15T00:02:53;6.85;;;2.90;;
7169;SDS011;3626;42.656;23.312;2023-04-15T00:02:59;7.83;;;3.00;;
7169;SDS011;3626;42.656;23.312;2023-04-15T00:03:06;7.73;;;3.10;;
7169;SDS011;3626;42.656;23.312;2023-04-15T00:03:13;7.70;;;3.10;;
7169;SDS011;3626;42.656;23.312;2023-04-15T00:03:18;7.93;;;3.10;;
7169;SDS011;3626;42.656;23.312;2023-04-15T00:03:24;8.13;;;3.20;;
7169;SDS011;3626;42.656;23.312;2023-04-15T00:03:30;8.13;;;3.20;;
7169;SDS011;3626;42.656;23.312;2023-04-15T00:03:38;7.38;;;3.15;;
7169;SDS011;3626;42.656;23.312;2023-04-15T00:03:44;7.63;;;3.17;;
7169;SDS011;3626;42.656;23.312;2023-04-15T00:03:51;7.90;;;3.23;;
7169;SDS011;3626;42.656;23.312;2023-04-15T00:04:00;7.16;;;3.22;;
7169;SDS011;3626;42.656;23.312;2023-04-15T00:04:06;6.88;;;3.20;;
7169;SDS011;3626;42.656;23.312;2023-04-15T00:04:13;7.23;;;3.10;;
7169;SDS011;3626;42.656;23.312;2023-04-15T00:04:19;7.18;;;3.20;;
7169;SDS011;3626;42.656;23.312;2023-04-15T00:04:26;7.20;;;3.22;;
7169;SDS011;3626;42.656;23.312;2023-04-15T00:04:32;6.80;;;3.17;;
7169;SDS011;3626;42.656;23.312;2023-04-15T00:04:38;6.82;;;3.20;;
7169;SDS011;3626;42.656;23.312;2023-04-15T00:04:44;6.45;;;3.20;;
7169;SDS011;3626;42.656;23.312;2023-04-15T00:04:51;6.72;;;3.28;;
7169;SDS011;3626;42.656;23.312;2023-04-15T00:04:57;6.36;;;3.30;;
7169;SDS011;3626;42.656;23.312;2023-04-15T00:05:03;6.68;;;3.30;;
7169;SDS011;3626;42.656;23.312;2023-04-15T00:05:10;6.76;;;3.30;;
7169;SDS011;3626;42.656;23.312;2023-04-15T00:05:16;6.80;;;3.40;;
7169;SDS011;3626;42.656;23.312;2023-04-15T00:05:22;6.70;;;3.30;;
7169;SDS011;3626;42.656;23.312;2023-04-15T00:05:28;7.05;;;3.33;;
7169;SDS011;3626;42.656;23.312;2023-04-15T00:05:37;7.51;;;3.49;;
7169;SDS011;3626;42.656;23.312;2023-04-15T00:05:43;8.00;;;3.50;;
7169;SDS011;3626;42.656;23.312;2023-04-15T00:05:49;7.67;;;3.33;;
7169;SDS011;3626;42.656;23.312;2023-04-15T00:05:56;7.50;;;3.22;;
7169;SDS011;3626;42.656;23.312;2023-04-15T00:06:02;7.22;;;3.30;;
7169;SDS011;3626;42.656;23.312;2023-04-15T00:06:08;6.90;;;3.33;;
7169;SDS011;3626;42.656;23.312;2023-04-15T00:06:14;6.95;;;3.38;;
7169;SDS011;3626;42.656;23.312;2023-04-15T00:06:20;6.80;;;3.35;;
7169;SDS011;3626;42.656;23.312;2023-04-15T00:06:27;6.82;;;3.40;;
7169;SDS011;3626;42.656;23.312;2023-04-15T00:06:33;6.50;;;3.40;;
7169;SDS011;3626;42.656;23.312;2023-04-15T00:06:39;6.67;;;3.40;;
7169;SDS011;3626;42.656;23.312;2023-04-15T00:06:49;6.47;;;3.40;;
7169;SDS011;3626;42.656;23.312;2023-04-15T00:06:57;6.72;;;3.50;;
7169;SDS011;3626;42.656;23.312;2023-04-15T00:07:03;8.48;;;3.60;;
7169;SDS011;3626;42.656;23.312;2023-04-15T00:07:09;8.20;;;3.55;;
7169;SDS011;3626;42.656;23.312;2023-04-15T00:07:16;8.17;;;3.50;;
7169;SDS011;3626;42.656;23.312;2023-04-15T00:07:22;8.03;;;3.50;;
7169;SDS011;3626;42.656;23.312;2023-04-15T00:07:28;8.10;;;3.57;;
7169;SDS011;3626;42.656;23.312;2023-04-15T00:07:35;8.30;;;3.60;;
7169;SDS011;3626;42.656;23.312;2023-04-15T00:07:41;8.13;;;3.60;;
7169;SDS011;3626;42.656;23.312;2023-04-15T00:07:47;8.10;;;3.65;;
7169;SDS011;3626;42.656;23.312;2023-04-15T00:07:53;8.02;;;3.88;;
7169;SDS011;3626;42.656;23.312;2023-04-15T00:07:59;6.68;;;3.72;;
7169;SDS011;3626;42.656;23.312;2023-04-15T00:08:05;6.06;;;3.70;;
7169;SDS011;3626;42.656;23.312;2023-04-15T00:08:12;6.53;;;3.87;;
7169;SDS011;3626;42.656;23.312;2023-04-15T00:08:18;6.63;;;3.90;;
7169;SDS011;3626;42.656;23.312;2023-04-15T00:08:24;6.85;;;4.03;;
7169;SDS011;3626;42.656;23.312;2023-04-15T00:08:30;6.75;;;4.00;;
7169;SDS011;3626;42.656;23.312;2023-04-15T00:08:36;6.82;;;4.00;;
7169;SDS011;3626;42.656;23.312;2023-04-15T00:08:42;6.78;;;4.00;;
7169;SDS011;3626;42.656;23.312;2023-04-15T00:08:48;6.70;;;3.90;;
7169;SDS011;3626;42.656;23.312;2023-04-15T00:08:55;6.70;;;3.77;;
7169;SDS011;3626;42.656;23.312;2023-04-15T00:09:02;6.60;;;3.70;;
7169;SDS011;3626;42.656;23.312;2023-04-15T00:09:08;7.17;;;3.70;;
7169;SDS011;3626;42.656;23.312;2023-04-15T00:09:14;6.95;;;3.67;;
7169;SDS011;3626;42.656;23.312;2023-04-15T00:09:20;6.85;;;3.53;;
7169;SDS011;3626;42.656;23.312;2023-04-15T00:09:26;6.85;;;3.50;;
7169;SDS011;3626;42.656;23.312;2023-04-15T00:09:32;6.57;;;3.35;;
7169;SDS011;3626;42.656;23.312;2023-04-15T00:09:38;6.78;;;3.33;;
7169;SDS011;3626;42.656;23.312;2023-04-15T00:09:44;7.53;;;3.37;;
7169;SDS011;3626;42.656;23.312;2023-04-15T00:09:50;7.97;;;3.40;;
7169;SDS011;3626;42.656;23.312;2023-04-15T00:09:59;8.37;;;3.40;;
7169;SDS011;3626;42.656;23.312;2023-04-15T00:10:05;8.50;;;3.40;;
7169;SDS011;3626;42.656;23.312;2023-04-15T00:10:12;8.18;;;3.40;;
7169;SDS011;3626;42.656;23.312;2023-04-15T00:10:21;8.96;;;3.50;;
7169;SDS011;3626;42.656;23.312;2023-04-15T00:10:27;8.97;;;3.57;;
7169;SDS011;3626;42.656;23.312;2023-04-15T00:10:33;8.93;;;3.60;;
7169;SDS011;3626;42.656;23.312;2023-04-15T00:10:39;8.77;;;3.60;;
7169;SDS011;3626;42.656;23.312;2023-04-15T00:10:48;8.77;;;3.60;;
7169;SDS011;3626;42.656;23.312;2023-04-15T00:10:55;8.42;;;3.56;;
7169;SDS011;3626;42.656;23.312;2023-04-15T00:11:01;8.25;;;3.60;;
7169;SDS011;3626;42.656;23.312;2023-04-15T00:11:09;8.86;;;3.57;;
7169;SDS011;3626;42.656;23.312;2023-04-15T00:11:15;9.02;;;3.70;;
7169;SDS011;3626;42.656;23.312;2023-04-15T00:11:22;8.97;;;3.60;;
7169;SDS011;3626;42.656;23.312;2023-04-15T00:11:28;8.98;;;3.56;;
7169;SDS011;3626;42.656;23.312;2023-04-15T00:11:34;9.38;;;3.70;;
7169;SDS011;3626;42.656;23.312;2023-04-15T00:11:40;8.60;;;3.55;;
7169;SDS011;3626;42.656;23.312;2023-04-15T00:11:48;8.07;;;3.53;;
7169;SDS011;3626;42.656;23.312;2023-04-15T00:11:55;8.42;;;3.60;;
7169;SDS011;3626;42.656;23.312;2023-04-15T00:12:01;8.30;;;3.60;;
7169;SDS011;3626;42.656;23.312;2023-04-15T00:12:07;7.72;;;3.70;;
7169;SDS011;3626;42.656;23.312;2023-04-15T00:12:13;6.82;;;3.70;;
7169;SDS011;3626;42.656;23.312;2023-04-15T00:12:19;7.07;;;3.92;;
7169;SDS011;3626;42.656;23.312;2023-04-15T00:12:26;9.23;;;4.03;;
7169;SDS011;3626;42.656;23.312;2023-04-15T00:12:32;9.67;;;4.27;;
7169;SDS011;3626;42.656;23.312;2023-04-15T00:12:38;10.85;;;4.43;;
7169;SDS011;3626;42.656;23.312;2023-04-15T00:12:45;12.00;;;4.65;;
7169;SDS011;3626;42.656;23.312;2023-04-15T00:12:51;11.82;;;4.55;;
7169;SDS011;3626;42.656;23.312;2023-04-15T00:12:57;11.75;;;4.50;;
7169;SDS011;3626;42.656;23.312;2023-04-15T00:13:03;11.55;;;4.40;;
7169;SDS011;3626;42.656;23.312;2023-04-15T00:13:09;11.57;;;4.30;;
7169;SDS011;3626;42.656;23.312;2023-04-15T00:13:16;13.02;;;4.10;;
7169;SDS011;3626;42.656;23.312;2023-04-15T00:13:22;12.77;;;4.00;;
7169;SDS011;3626;42.656;23.312;2023-04-15T00:13:28;11.93;;;3.90;;
7169;SDS011;3626;42.656;23.312;2023-04-15T00:13:34;11.38;;;3.63;;
7169;SDS011;3626;42.656;23.312;2023-04-15T00:13:40;10.53;;;3.60;;
7169;SDS011;3626;42.656;23.312;2023-04-15T00:13:46;9.52;;;3.42;;
7169;SDS011;3626;42.656;23.312;2023-04-15T00:13:53;10.03;;;3.50;;
7169;SDS011;3626;42.656;23.312;2023-04-15T00:13:59;10.20;;;3.60;;
7169;SDS011;3626;42.656;23.312;2023-04-15T00:14:05;11.00;;;3.85;;
7169;SDS011;3626;42.656;23.312;2023-04-15T00:14:12;9.65;;;3.92;;
7169;SDS011;3626;42.656;23.312;2023-04-15T00:14:18;9.43;;;4.00;;
7169;SDS011;3626;42.656;23.312;2023-04-15T00:14:25;9.36;;;4.20;;
7169;SDS011;3626;42.656;23.312;2023-04-15T00:14:32;8.85;;;4.20;;
7169;SDS011;3626;42.656;23.312;2023-04-15T00:14:39;9.25;;;4.23;;
7169;SDS011;3626;42.656;23.312;2023-04-15T00:14:45;10.13;;;4.30;;
7169;SDS011;3626;42.656;23.312;2023-04-15T00:14:50;9.48;;;4.20;;
7169;SDS011;3626;42.656;23.312;2023-04-15T00:14:57;9.45;;;4.28;;
7169;SDS011;3626;42.656;23.312;2023-04-15T00:15:03;9.10;;;4.20;;
7169;SDS011;3626;42.656;23.312;2023-04-15T00:15:10;10.53;;;4.00;;
7169;SDS011;3626;42.656;23.312;2023-04-15T00:15:17;10.73;;;4.10;;
7169;SDS011;3626;42.656;23.312;2023-04-15T00:15:23;10.94;;;3.98;;
7169;SDS011;3626;42.656;23.312;2023-04-15T00:15:30;11.70;;;4.00;;
7169;SDS011;3626;42.656;23.312;2023-04-15T00:15:36;11.85;;;4.03;;
7169;SDS011;3626;42.656;23.312;2023-04-15T00:15:43;10.93;;;3.93;;
7169;SDS011;3626;42.656;23.312;2023-04-15T00:15:49;12.27;;;4.15;;
7169;SDS011;3626;42.656;23.312;2023-04-15T00:15:55;12.38;;;4.20;;
7169;SDS011;3626;42.656;23.312;2023-04-15T00:16:01;12.13;;;4.20;;
7169;SDS011;3626;42.656;23.312;2023-04-15T00:16:07;11.45;;;4.10;;
7169;SDS011;3626;42.656;23.312;2023-04-15T00:16:14;10.30;;;4.28;;
7169;SDS011;3626;42.656;23.312;2023-04-15T00:16:21;10.13;;;4.22;;
7169;SDS011;3626;42.656;23.312;2023-04-15T00:16:29;9.13;;;4.20;;
7169;SDS011;3626;42.656;23.312;2023-04-15T00:16:35;9.03;;;4.20;;
7169;SDS011;3626;42.656;23.312;2023-04-15T00:16:42;12.60;;;4.30;;
7169;SDS011;3626;42.656;23.312;2023-04-15T00:16:48;11.40;;;4.22;;
7169;SDS011;3626;42.656;23.312;2023-04-15T00:17:00;11.21;;;4.21;;
7169;SDS011;3626;42.656;23.312;2023-04-15T00:17:06;11.10;;;4.20;;
7169;SDS011;3626;42.656;23.312;2023-04-15T00:17:12;11.13;;;4.13;;
7169;SDS011;3626;42.656;23.312;2023-04-15T00:17:18;12.50;;;4.10;;
7169;SDS011;3626;42.656;23.312;2023-04-15T00:17:24;13.13;;;4.30;;
7169;SDS011;3626;42.656;23.312;2023-04-15T00:17:30;13.17;;;4.37;;
7169;SDS011;3626;42.656;23.312;2023-04-15T00:17:37;11.78;;;4.26;;
7169;SDS011;3626;42.656;23.312;2023-04-15T00:17:43;9.93;;;4.20;;
7169;SDS011;3626;42.656;23.312;2023-04-15T00:17:50;9.73;;;4.10;;
7169;SDS011;3626;42.656;23.312;2023-04-15T00:17:56;9.70;;;4.20;;
7169;SDS011;3626;42.656;23.312;2023-04-15T00:18:02;10.13;;;4.28;;
7169;SDS011;3626;42.656;23.312;2023-04-15T00:18:09;10.24;;;4.30;;
7169;SDS011;3626;42.656;23.312;2023-04-15T00:18:15;10.18;;;4.40;;
7169;SDS011;3626;42.656;23.312;2023-04-15T00:18:21;8.50;;;4.22;;
7169;SDS011;3626;42.656;23.312;2023-04-15T00:18:28;7.50;;;4.00;;
7169;SDS011;3626;42.656;23.312;2023-04-15T00:18:34;7.40;;;4.00;;
7169;SDS011;3626;42.656;23.312;2023-04-15T00:18:41;6.82;;;3.98;;
7169;SDS011;3626;42.656;23.312;2023-04-15T00:18:47;7.15;;;4.10;;
7169;SDS011;3626;42.656;23.312;2023-04-15T00:18:53;7.65;;;4.10;;
7169;SDS011;3626;42.656;23.312;2023-04-15T00:18:59;7.55;;;4.00;;
7169;SDS011;3626;42.656;23.312;2023-04-15T00:19:05;7.32;;;3.97;;
7169;SDS011;3626;42.656;23.312;2023-04-15T00:19:11;7.18;;;4.00;;
7169;SDS011;3626;42.656;23.312;2023-04-15T00:19:17;7.00;;;3.90;;
7169;SDS011;3626;42.656;23.312;2023-04-15T00:19:23;8.18;;;4.00;;
7169;SDS011;3626;42.656;23.312;2023-04-15T00:19:34;8.54;;;4.02;;
7169;SDS011;3626;42.656;23.312;2023-04-15T00:19:40;8.40;;;4.00;;
7169;SDS011;3626;42.656;23.312;2023-04-15T00:19:45;8.30;;;3.90;;
7169;SDS011;3626;42.656;23.312;2023-04-15T00:19:54;8.27;;;4.10;;
7169;SDS011;3626;42.656;23.312;2023-04-15T00:20:00;8.77;;;4.17;;
7169;SDS011;3626;42.656;23.312;2023-04-15T00:20:08;9.45;;;4.20;;
7169;SDS011;3626;42.656;23.312;2023-04-15T00:20:14;10.02;;;4.18;;
7169;SDS011;3626;42.656;23.312;2023-04-15T00:20:20;10.80;;;4.47;;
7169;SDS011;3626;42.656;23.312;2023-04-15T00:20:26;10.60;;;4.70;;
7169;SDS011;3626;42.656;23.312;2023-04-15T00:20:32;11.10;;;4.88;;
7169;SDS011;3626;42.656;23.312;2023-04-15T00:20:38;13.25;;;4.80;;
7169;SDS011;3626;42.656;23.312;2023-04-15T00:20:44;13.57;;;4.85;;
7169;SDS011;3626;42.656;23.312;2023-04-15T00:20:55;13.72;;;4.81;;
7169;SDS011;3626;42.656;23.312;2023-04-15T00:21:01;13.50;;;4.80;;
7169;SDS011;3626;42.656;23.312;2023-04-15T00:21:07;14.20;;;4.83;;
7169;SDS011;3626;42.656;23.312;2023-04-15T00:21:13;13.50;;;4.80;;
7169;SDS011;3626;42.656;23.312;2023-04-15T00:21:20;12.80;;;4.57;;
7169;SDS011;3626;42.656;23.312;2023-04-15T00:21:26;12.18;;;4.47;;
7169;SDS011;3626;42.656;23.312;2023-04-15T00:21:33;12.10;;;4.30;;
7169;SDS011;3626;42.656;23.312;2023-04-15T00:21:39;10.80;;;4.40;;
7169;SDS011;3626;42.656;23.312;2023-04-15T00:21:45;11.13;;;4.47;;
7169;SDS011;3626;42.656;23.312;2023-04-15T00:21:51;10.70;;;4.33;;
7169;SDS011;3626;42.656;23.312;2023-04-15T00:21:57;10.40;;;4.32;;
7169;SDS011;3626;42.656;23.312;2023-04-15T00:22:04;10.06;;;4.40;;
7169;SDS011;3626;42.656;23.312;2023-04-15T00:22:10;9.60;;;4.43;;
7169;SDS011;3626;42.656;23.312;2023-04-15T00:22:16;9.87;;;4.50;;
7169;SDS011;3626;42.656;23.312;2023-04-15T00:22:22;10.18;;;4.50;;
7169;SDS011;3626;42.656;23.312;2023-04-15T00:22:28;9.70;;;4.40;;
7169;SDS011;3626;42.656;23.312;2023-04-15T00:22:37;9.31;;;4.33;;
7169;SDS011;3626;42.656;23.312;2023-04-15T00:22:43;8.88;;;4.35;;
7169;SDS011;3626;42.656;23.312;2023-04-15T00:22:49;9.13;;;4.40;;
7169;SDS011;3626;42.656;23.312;2023-04-15T00:22:55;9.15;;;4.40;;
7169;SDS011;3626;42.656;23.312;2023-04-15T00:23:01;8.93;;;4.33;;
7169;SDS011;3626;42.656;23.312;2023-04-15T00:23:08;9.00;;;4.34;;
7169;SDS011;3626;42.656;23.312;2023-04-15T00:23:16;9.51;;;4.37;;
7169;SDS011;3626;42.656;23.312;2023-04-15T00:23:23;10.07;;;4.40;;
7169;SDS011;3626;42.656;23.312;2023-04-15T00:23:29;9.95;;;4.45;;
7169;SDS011;3626;42.656;23.312;2023-04-15T00:23:35;10.07;;;4.43;;
7169;SDS011;3626;42.656;23.312;2023-04-15T00:23:41;9.77;;;4.30;;
7169;SDS011;3626;42.656;23.312;2023-04-15T00:23:48;9.40;;;4.20;;
7169;SDS011;3626;42.656;23.312;2023-04-15T00:23:56;10.03;;;4.10;;
7169;SDS011;3626;42.656;23.312;2023-04-15T00:24:06;10.19;;;4.00;;
7169;SDS011;3626;42.656;23.312;2023-04-15T00:24:12;9.75;;;3.90;;
7169;SDS011;3626;42.656;23.312;2023-04-15T00:24:17;8.63;;;3.85;;
7169;SDS011;3626;42.656;23.312;2023-04-15T00:24:23;7.60;;;3.70;;
7169;SDS011;3626;42.656;23.312;2023-04-15T00:24:29;7.30;;;3.57;;
7169;SDS011;3626;42.656;23.312;2023-04-15T00:24:35;7.38;;;3.60;;
7169;SDS011;3626;42.656;23.312;2023-04-15T00:24:42;7.25;;;3.60;;
7169;SDS011;3626;42.656;23.312;2023-04-15T00:24:48;7.45;;;3.75;;
7169;SDS011;3626;42.656;23.312;2023-04-15T00:24:53;7.47;;;3.80;;
7169;SDS011;3626;42.656;23.312;2023-04-15T00:24:59;6.78;;;3.90;;
7169;SDS011;3626;42.656;23.312;2023-04-15T00:25:06;7.00;;;3.90;;
7169;SDS011;3626;42.656;23.312;2023-04-15T00:25:13;6.90;;;4.00;;
7169;SDS011;3626;42.656;23.312;2023-04-15T00:25:19;7.17;;;4.00;;
7169;SDS011;3626;42.656;23.312;2023-04-15T00:25:28;7.29;;;4.09;;
7169;SDS011;3626;42.656;23.312;2023-04-15T00:25:34;7.50;;;4.07;;
7169;SDS011;3626;42.656;23.312;2023-04-15T00:25:40;8.25;;;4.13;;
7169;SDS011;3626;42.656;23.312;2023-04-15T00:25:46;8.30;;;3.97;;
7169;SDS011;3626;42.656;23.312;2023-04-15T00:25:52;7.65;;;3.72;;
7169;SDS011;3626;42.656;23.312;2023-04-15T00:25:58;8.37;;;3.80;;
7169;SDS011;3626;42.656;23.312;2023-04-15T00:26:04;8.77;;;3.80;;
7169;SDS011;3626;42.656;23.312;2023-04-15T00:26:11;8.72;;;3.78;;
7169;SDS011;3626;42.656;23.312;2023-04-15T00:26:17;9.00;;;3.80;;
7169;SDS011;3626;42.656;23.312;2023-04-15T00:26:23;8.93;;;3.80;;
7169;SDS011;3626;42.656;23.312;2023-04-15T00:26:29;9.27;;;4.03;;
7169;SDS011;3626;42.656;23.312;2023-04-15T00:26:35;9.32;;;4.10;;
7169;SDS011;3626;42.656;23.312;2023-04-15T00:26:41;9.18;;;4.20;;
7169;SDS011;3626;42.656;23.312;2023-04-15T00:26:47;9.35;;;4.40;;
7169;SDS011;3626;42.656;23.312;2023-04-15T00:26:53;9.75;;;4.60;;
7169;SDS011;3626;42.656;23.312;2023-04-15T00:27:00;9.48;;;4.62;;
7169;SDS011;3626;42.656;23.312;2023-04-15T00:27:07;9.88;;;4.86;;
7169;SDS011;3626;42.656;23.312;2023-04-15T00:27:13;9.98;;;4.90;;
7169;SDS011;3626;42.656;23.312;2023-04-15T00:27:19;9.77;;;4.80;;
7169;SDS011;3626;42.656;23.312;2023-04-15T00:27:25;10.02;;;4.85;;
7169;SDS011;3626;42.656;23.312;2023-04-15T00:27:31;9.55;;;4.65;;
7169;SDS011;3626;42.656;23.312;2023-04-15T00:27:37;9.27;;;4.50;;
7169;SDS011;3626;42.656;23.312;2023-04-15T00:27:43;9.43;;;4.50;;
7169;SDS011;3626;42.656;23.312;2023-04-15T00:27:49;9.10;;;4.35;;
7169;SDS011;3626;42.656;23.312;2023-04-15T00:27:55;9.07;;;4.30;;
7169;SDS011;3626;42.656;23.312;2023-04-15T00:28:01;8.32;;;4.15;;
7169;SDS011;3626;42.656;23.312;2023-04-15T00:28:08;7.73;;;3.90;;
7169;SDS011;3626;42.656;23.312;2023-04-15T00:28:14;7.70;;;3.83;;
7169;SDS011;3626;42.656;23.312;2023-04-15T00:28:20;7.75;;;3.80;;
7169;SDS011;3626;42.656;23.312;2023-04-15T00:28:26;8.16;;;3.78;;
7169;SDS011;3626;42.656;23.312;2023-04-15T00:28:32;9.70;;;4.00;;
7169;SDS011;3626;42.656;23.312;2023-04-15T00:28:41;9.90;;;4.10;;
7169;SDS011;3626;42.656;23.312;2023-04-15T00:28:47;9.43;;;4.00;;
7169;SDS011;3626;42.656;23.312;2023-04-15T00:28:56;9.20;;;4.03;;
7169;SDS011;3626;42.656;23.312;2023-04-15T00:29:02;9.23;;;4.10;;
7169;SDS011;3626;42.656;23.312;2023-04-15T00:29:08;9.10;;;4.10;;
7169;SDS011;3626;42.656;23.312;2023-04-15T00:29:14;9.63;;;4.13;;
7169;SDS011;3626;42.656;23.312;2023-04-15T00:29:20;9.45;;;4.15;;
7169;SDS011;3626;42.656;23.312;2023-04-15T00:29:26;8.88;;;4.10;;
7169;SDS011;3626;42.656;23.312;2023-04-15T00:29:32;8.70;;;3.95;;
7169;SDS011;3626;42.656;23.312;2023-04-15T00:29:38;8.50;;;3.88;;
7169;SDS011;3626;42.656;23.312;2023-04-15T00:29:44;9.07;;;3.97;;
7169;SDS011;3626;42.656;23.312;2023-04-15T00:29:51;9.20;;;4.00;;
7169;SDS011;3626;42.656;23.312;2023-04-15T00:29:58;9.87;;;4.10;;
7169;SDS011;3626;42.656;23.312;2023-04-15T00:30:04;10.60;;;4.25;;
7169;SDS011;3626;42.656;23.312;2023-04-15T00:30:11;10.73;;;4.40;;
7169;SDS011;3626;42.656;23.312;2023-04-15T00:30:17;10.50;;;4.47;;
7169;SDS011;3626;42.656;23.312;2023-04-15T00:30:23;10.50;;;4.50;;
7169;SDS011;3626;42.656;23.312;2023-04-15T00:30:30;9.86;;;4.46;;
7169;SDS011;3626;42.656;23.312;2023-04-15T00:30:36;8.82;;;4.43;;
7169;SDS011;3626;42.656;23.312;2023-04-15T00:30:43;8.60;;;4.40;;
7169;SDS011;3626;42.656;23.312;2023-04-15T00:30:49;8.30;;;4.22;;
7169;SDS011;3626;42.656;23.312;2023-04-15T00:30:55;8.00;;;4.20;;
7169;SDS011;3626;42.656;23.312;2023-04-15T00:31:01;7.50;;;4.10;;
7169;SDS011;3626;42.656;23.312;2023-04-15T00:31:08;7.67;;;4.07;;
7169;SDS011;3626;42.656;23.312;2023-04-15T00:31:15;7.55;;;3.92;;
7169;SDS011;3626;42.656;23.312;2023-04-15T00:31:21;7.40;;;3.80;;
7169;SDS011;3626;42.656;23.312;2023-04-15T00:31:30;8.13;;;3.97;;
7169;SDS011;3626;42.656;23.312;2023-04-15T00:31:36;8.03;;;3.89;;
7169;SDS011;3626;42.656;23.312;2023-04-15T00:31:45;8.41;;;3.80;;
7169;SDS011;3626;42.656;23.312;2023-04-15T00:31:51;9.55;;;4.05;;
7169;SDS011;3626;42.656;23.312;2023-04-15T00:31:57;9.90;;;4.00;;
7169;SDS011;3626;42.656;23.312;2023-04-15T00:32:03;10.98;;;4.32;;
7169;SDS011;3626;42.656;23.312;2023-04-15T00:32:09;11.38;;;4.38;;
7169;SDS011;3626;42.656;23.312;2023-04-15T00:32:17;11.80;;;4.50;;
7169;SDS011;3626;42.656;23.312;2023-04-15T00:32:23;11.70;;;4.53;;
7169;SDS011;3626;42.656;23.312;2023-04-15T00:32:29;11.20;;;4.50;;
7169;SDS011;3626;42.656;23.312;2023-04-15T00:32:35;11.23;;;4.60;;
7169;SDS011;3626;42.656;23.312;2023-04-15T00:32:41;11.18;;;4.57;;
7169;SDS011;3626;42.656;23.312;2023-04-15T00:32:49;10.34;;;4.47;;
7169;SDS011;3626;42.656;23.312;2023-04-15T00:32:55;10.00;;;4.40;;
7169;SDS011;3626;42.656;23.312;2023-04-15T00:33:01;9.10;;;4.18;;
7169;SDS011;3626;42.656;23.312;2023-04-15T00:33:08;8.57;;;4.00;;
7169;SDS011;3626;42.656;23.312;2023-04-15T00:33:14;9.27;;;3.90;;
7169;SDS011;3626;42.656;23.312;2023-04-15T00:33:20;9.20;;;4.00;;
7169;SDS011;3626;42.656;23.312;2023-04-15T00:33:26;9.50;;;4.28;;
7169;SDS011;3626;42.656;23.312;2023-04-15T00:33:32;9.75;;;4.30;;
7169;SDS011;3626;42.656;23.312;2023-04-15T00:33:38;9.90;;;4.40;;
7169;SDS011;3626;42.656;23.312;2023-04-15T00:33:44;9.50;;;4.38;;
7169;SDS011;3626;42.656;23.312;2023-04-15T00:33:50;9.40;;;4.32;;
7169;SDS011;3626;42.656;23.312;2023-04-15T00:33:56;10.40;;;4.55;;
7169;SDS011;3626;42.656;23.312;2023-04-15T00:34:02;10.80;;;4.60;;
7169;SDS011;3626;42.656;23.312;2023-04-15T00:34:11;10.00;;;4.80;;
7169;SDS011;3626;42.656;23.312;2023-04-15T00:34:17;10.08;;;4.80;;
7169;SDS011;3626;42.656;23.312;2023-04-15T00:34:23;9.95;;;4.53;;
7169;SDS011;3626;42.656;23.312;2023-04-15T00:34:29;10.07;;;4.43;;
7169;SDS011;3626;42.656;23.312;2023-04-15T00:34:35;10.13;;;4.40;;
7169;SDS011;3626;42.656;23.312;2023-04-15T00:34:41;10.20;;;4.40;;
7169;SDS011;3626;42.656;23.312;2023-04-15T00:34:47;10.90;;;4.50;;
7169;SDS011;3626;42.656;23.312;2023-04-15T00:34:57;9.90;;;4.27;;
7169;SDS011;3626;42.656;23.312;2023-04-15T00:35:03;10.46;;;4.27;;
7169;SDS011;3626;42.656;23.312;2023-04-15T00:35:09;10.53;;;4.20;;
7169;SDS011;3626;42.656;23.312;2023-04-15T00:35:16;10.36;;;4.10;;
7169;SDS011;3626;42.656;23.312;2023-04-15T00:35:22;10.43;;;4.15;;
7169;SDS011;3626;42.656;23.312;2023-04-15T00:35:28;11.03;;;4.20;;
7169;SDS011;3626;42.656;23.312;2023-04-15T00:35:36;11.05;;;4.25;;
7169;SDS011;3626;42.656;23.312;2023-04-15T00:35:42;10.95;;;4.40;;
7169;SDS011;3626;42.656;23.312;2023-04-15T00:35:48;10.27;;;4.33;;
7169;SDS011;3626;42.656;23.312;2023-04-15T00:35:55;10.50;;;4.40;;
7169;SDS011;3626;42.656;23.312;2023-04-15T00:36:03;8.50;;;4.20;;
7169;SDS011;3626;42.656;23.312;2023-04-15T00:36:10;8.37;;;4.20;;
7169;SDS011;3626;42.656;23.312;2023-04-15T00:36:16;8.27;;;4.22;;
7169;SDS011;3626;42.656;23.312;2023-04-15T00:36:22;9.10;;;4.25;;
7169;SDS011;3626;42.656;23.312;2023-04-15T00:36:28;8.57;;;4.25;;
7169;SDS011;3626;42.656;23.312;2023-04-15T00:36:35;8.48;;;4.16;;
7169;SDS011;3626;42.656;23.312;2023-04-15T00:36:41;9.25;;;4.20;;
7169;SDS011;3626;42.656;23.312;2023-04-15T00:36:48;9.47;;;4.37;;
7169;SDS011;3626;42.656;23.312;2023-04-15T00:36:56;9.60;;;4.24;;
7169;SDS011;3626;42.656;23.312;2023-04-15T00:37:04;9.72;;;4.30;;
7169;SDS011;3626;42.656;23.312;2023-04-15T00:37:10;9.80;;;4.30;;
7169;SDS011;3626;42.656;23.312;2023-04-15T00:37:16;9.90;;;4.23;;
7169;SDS011;3626;42.656;23.312;2023-04-15T00:37:22;8.87;;;4.23;;
7169;SDS011;3626;42.656;23.312;2023-04-15T00:37:28;8.93;;;4.22;;
7169;SDS011;3626;42.656;23.312;2023-04-15T00:37:35;8.93;;;4.28;;
7169;SDS011;3626;42.656;23.312;2023-04-15T00:37:41;8.10;;;4.10;;
7169;SDS011;3626;42.656;23.312;2023-04-15T00:37:47;7.82;;;4.00;;
7169;SDS011;3626;42.656;23.312;2023-04-15T00:37:53;7.68;;;4.03;;
7169;SDS011;3626;42.656;23.312;2023-04-15T00:37:59;7.47;;;4.10;;
7169;SDS011;3626;42.656;23.312;2023-04-15T00:38:05;8.25;;;4.15;;
7169;SDS011;3626;42.656;23.312;2023-04-15T00:38:12;8.10;;;4.14;;
7169;SDS011;3626;42.656;23.312;2023-04-15T00:38:18;7.95;;;4.10;;
7169;SDS011;3626;42.656;23.312;2023-04-15T00:38:25;7.57;;;3.93;;
7169;SDS011;3626;42.656;23.312;2023-04-15T00:38:31;7.28;;;3.90;;
7169;SDS011;3626;42.656;23.312;2023-04-15T00:38:37;7.03;;;3.80;;
7169;SDS011;3626;42.656;23.312;2023-04-15T00:38:43;7.45;;;3.72;;
7169;SDS011;3626;42.656;23.312;2023-04-15T00:38:49;7.65;;;3.78;;
7169;SDS011;3626;42.656;23.312;2023-04-15T00:38:55;7.78;;;3.70;;
7169;SDS011;3626;42.656;23.312;2023-04-15T00:39:01;7.45;;;3.72;;
7169;SDS011;3626;42.656;23.312;2023-04-15T00:39:07;7.10;;;3.58;;
7169;SDS011;3626;42.656;23.312;2023-04-15T00:39:13;7.72;;;3.60;;
7169;SDS011;3626;42.656;23.312;2023-04-15T00:39:21;8.38;;;3.78;;
7169;SDS011;3626;42.656;23.312;2023-04-15T00:39:27;8.75;;;4.00;;
7169;SDS011;3626;42.656;23.312;2023-04-15T00:39:33;8.93;;;4.10;;
7169;SDS011;3626;42.656;23.312;2023-04-15T00:39:40;8.87;;;4.10;;